Storm Events Database

Event Details

Event Thunderstorm Wind
Magnitude 50 kts.
State MINNESOTA
County/Area DOUGLAS
WFO MPX
Report Source Law Enforcement
NCDC Data Source CSV
Begin Date 2011-08-01 05:47:00.0 CST-6
Begin Location 1N EVANSVILLE
Begin Lat/Lon 46.01/-95.68
End Date 2011-08-01 05:47:00.0 CST-6
Deaths Direct/Indirect 0/0 (fatality details below, when available...)
Injuries Direct/Indirect 0/0
Property Damage 2.00K
Crop Damage 0.00K
Episode Narrative Severe thunderstorms moved from the area west of Alexandria, southeast to the Twin Cities on Monday, August 1st. Most of the damage occurred in the morning around Alexandria, Starbuck and Glenwood, along with very heavy rainfall and flooding near Glenwood, Minnesota. There was some decrease in the thunderstorm intensity during the late morning, but they re-intensified by the early afternoon west of the Twin Cities, and moved southeast. Isolated tree damage occurred in the Twin Cities, along with reports of high winds.
Event Narrative Power lines were blown down.


     ‚Äč



All events for this episode:

Location County/Zone St. Date Time T.Z. Type Mag Dth Inj PrD CrD
Totals: 0 0 1.292M 0.00K
BRANDON DOUGLAS CO. MN 08/01/2011 05:46 CST-6 Thunderstorm Wind 56 kts. EG 0 0 0.00K 0.00K
EVANSVILLE DOUGLAS CO. MN 08/01/2011 05:47 CST-6 Thunderstorm Wind 50 kts. EG 0 0 2.00K 0.00K
BRANDON DOUGLAS CO. MN 08/01/2011 05:50 CST-6 Thunderstorm Wind 56 kts. EG 0 0 0.00K 0.00K
KENSINGTON DOUGLAS CO. MN 08/01/2011 05:50 CST-6 Thunderstorm Wind 61 kts. EG 0 0 100.00K 0.00K
FARWELL POPE CO. MN 08/01/2011 05:55 CST-6 Thunderstorm Wind 104 kts. EG 0 0 1.000M 0.00K
HOLMES CITY DOUGLAS CO. MN 08/01/2011 05:59 CST-6 Hail 0.75 in. 0 0 0.00K 0.00K
EVANSVILLE DOUGLAS CO. MN 08/01/2011 06:00 CST-6 Heavy Rain 0 0 0.00K 0.00K
FORADA DOUGLAS CO. MN 08/01/2011 06:22 CST-6 Thunderstorm Wind 59 kts. MG 0 0 0.00K 0.00K
GILCHRIST POPE CO. MN 08/01/2011 07:10 CST-6 Thunderstorm Wind 50 kts. EG 0 0 0.00K 0.00K
GILCHRIST POPE CO. MN 08/01/2011 07:15 CST-6 Hail 1.00 in. 0 0 0.00K 0.00K
SPICER KANDIYOHI CO. MN 08/01/2011 08:50 CST-6 Hail 1.50 in. 0 0 0.00K 0.00K
LONG BEACH POPE CO. MN 08/01/2011 09:39 CST-6 Flash Flood 0 0 0.00K 0.00K
GEORGEVILLE STEARNS CO. MN 08/01/2011 10:01 CST-6 Thunderstorm Wind 54 kts. MG 0 0 0.00K 0.00K
HAWICK KANDIYOHI CO. MN 08/01/2011 10:12 CST-6 Thunderstorm Wind 50 kts. EG 0 0 0.00K 0.00K
WAITE PARK STEARNS CO. MN 08/01/2011 10:45 CST-6 Lightning 0 0 100.00K 0.00K
LITCHFIELD MEEKER CO. MN 08/01/2011 10:50 CST-6 Thunderstorm Wind 50 kts. EG 0 0 0.00K 0.00K
HUTCHINSON MCLEOD CO. MN 08/01/2011 11:00 CST-6 Heavy Rain 0 0 0.00K 0.00K
COKATO WRIGHT CO. MN 08/01/2011 11:05 CST-6 Thunderstorm Wind 50 kts. EG 0 0 0.00K 0.00K
MONTROSE WRIGHT CO. MN 08/01/2011 11:25 CST-6 Thunderstorm Wind 52 kts. EG 0 0 0.00K 0.00K
GLENCOE MCLEOD CO. MN 08/01/2011 11:40 CST-6 Thunderstorm Wind 52 kts. EG 0 0 0.00K 0.00K
MINNETRISTA HENNEPIN CO. MN 08/01/2011 11:50 CST-6 Thunderstorm Wind 56 kts. EG 0 0 50.00K 0.00K
CASEY MEEKER CO. MN 08/01/2011 12:00 CST-6 Lightning 0 0 15.00K 0.00K
GLENCOE MCLEOD CO. MN 08/01/2011 12:00 CST-6 Heavy Rain 0 0 0.00K 0.00K
HUTCHINSON MCLEOD CO. MN 08/01/2011 12:00 CST-6 Heavy Rain 0 0 0.00K 0.00K
WINSTED MCLEOD CO. MN 08/01/2011 12:00 CST-6 Heavy Rain 0 0 0.00K 0.00K
MINNEAPOLIS HENNEPIN CO. MN 08/01/2011 12:10 CST-6 Thunderstorm Wind 50 kts. EG 0 0 25.00K 0.00K
HENDERSON SIBLEY CO. MN 08/01/2011 12:23 CST-6 Hail 1.00 in. 0 0 0.00K 0.00K
MINNEAPOLIS HENNEPIN CO. MN 08/01/2011 12:23 CST-6 Heavy Rain 0 0 0.00K 0.00K
LE CENTER LE SUEUR CO. MN 08/01/2011 12:49 CST-6 Hail 0.75 in. 0 0 0.00K 0.00K
FALCON HGTS RAMSEY CO. MN 08/01/2011 12:50 CST-6 Thunderstorm Wind 52 kts. EG 0 0 0.00K 0.00K
COTTAGE GROVE WASHINGTON CO. MN 08/01/2011 12:55 CST-6 Thunderstorm Wind 50 kts. EG 0 0 0.00K 0.00K
ST PAUL RAMSEY CO. MN 08/01/2011 12:56 CST-6 Hail 0.75 in. 0 0 0.00K 0.00K
FARIBAULT RICE CO. MN 08/01/2011 13:14 CST-6 Hail 0.75 in. 0 0 0.00K 0.00K
FARIBAULT RICE CO. MN 08/01/2011 13:19 CST-6 Funnel Cloud 0 0 0.00K 0.00K
NERSTRAND RICE CO. MN 08/01/2011 13:20 CST-6 Thunderstorm Wind 50 kts. EG 0 0 0.00K 0.00K
WASTEDO GOODHUE CO. MN 08/01/2011 13:52 CST-6 Thunderstorm Wind 51 kts. MG 0 0 0.00K 0.00K
Totals: 0 0 1.292M 0.00K